Jatai, Brazil
Current Conditions -  °F | °C
As of 4:00 PM on Saturday 25 Oct 2014 (Local Time) from SBBW Reporting Station
Broken Clouds Broken Clouds  
Wind Chill: 86°   Ceiling: 10000
Heat Index: 89°   Visibility: 6mi
Dew Point: 68°   Wind: 3mph
Humidity: 55%   Direction: 230°SW
Pressure: 29.85"   Gusts: NA
Location:  17.88°S, 51.71°W
Report Text: SBBW 251800Z 23003KT 9999 FEW020 BKN100 30/20 Q1011
Loading
Personal Weather Stations






























Interactive Weather Map New forecast layout! Learn more

10-Day Weather Forecast

Advertisements
Track Severe Weather on mobile